Time,TemperatureF,DewpointF,PressureIn,WindDirection,WindDirectionDegrees,WindSpeedMPH,WindSpeedGustMPH,Humidity,HourlyPrecipIn,Conditions,Clouds,dailyrainin,SoftwareType,DateUTC
2013-12-02 00:08:00,58.7,56.0,29.91,West,266,0.0,0.0,91,0.00,,,0.00,weatherlink.com 1.10,2013-12-02 06:08:00,
2013-12-02 00:23:00,58.4,56.0,29.91,West,262,0.0,3.0,91,0.00,,,0.00,weatherlink.com 1.10,2013-12-02 06:23:00,
2013-12-02 00:38:00,58.6,56.0,29.91,SW,214,0.0,3.0,91,0.00,,,0.00,weatherlink.com 1.10,2013-12-02 06:38:00,
2013-12-02 00:53:00,58.4,56.0,29.91,WSW,237,0.0,1.0,91,0.00,,,0.00,weatherlink.com 1.10,2013-12-02 06:53:00,
2013-12-02 01:08:00,58.0,55.0,29.90,WSW,241,0.0,3.0,91,0.00,,,0.00,weatherlink.com 1.10,2013-12-02 07:08:00,
2013-12-02 01:23:00,57.2,55.0,29.89,WSW,241,0.0,0.0,91,0.00,,,0.00,weatherlink.com 1.10,2013-12-02 07:23:00,
2013-12-02 01:38:00,56.6,54.0,29.89,West,261,0.0,2.0,92,0.00,,,0.00,weatherlink.com 1.10,2013-12-02 07:38:00,
2013-12-02 01:53:00,56.7,55.0,29.89,WNW,297,0.0,4.0,93,0.00,,,0.00,weatherlink.com 1.10,2013-12-02 07:53:00,
2013-12-02 02:08:00,56.7,55.0,29.88,West,267,0.0,1.0,93,0.00,,,0.00,weatherlink.com 1.10,2013-12-02 08:08:00,
2013-12-02 02:23:00,55.8,54.0,29.88,West,271,0.0,0.0,93,0.00,,,0.00,weatherlink.com 1.10,2013-12-02 08:23:00,
2013-12-02 02:38:00,55.6,54.0,29.87,WNW,286,0.0,2.0,93,0.00,,,0.00,weatherlink.com 1.10,2013-12-02 08:38:00,
2013-12-02 02:53:00,54.7,53.0,29.87,WNW,286,0.0,1.0,93,0.00,,,0.00,weatherlink.com 1.10,2013-12-02 08:53:00,
2013-12-02 03:09:00,53.7,52.0,29.86,WNW,287,0.0,0.0,93,0.00,,,0.00,weatherlink.com 1.10,2013-12-02 09:09:00,
2013-12-02 03:24:00,53.5,52.0,29.87,WNW,298,0.0,1.0,94,0.00,,,0.00,weatherlink.com 1.10,2013-12-02 09:24:00,
2013-12-02 03:39:00,54.4,53.0,29.86,WNW,282,5.0,5.0,95,0.00,,,0.00,weatherlink.com 1.10,2013-12-02 09:39:00,
2013-12-02 03:54:00,54.9,54.0,29.86,WNW,282,2.0,4.0,95,0.00,,,0.00,weatherlink.com 1.10,2013-12-02 09:54:00,
2013-12-02 04:09:00,53.5,52.0,29.85,WNW,284,1.0,2.0,94,0.00,,,0.00,weatherlink.com 1.10,2013-12-02 10:09:00,
2013-12-02 04:24:00,53.3,52.0,29.85,WNW,285,2.0,3.0,95,0.00,,,0.00,weatherlink.com 1.10,2013-12-02 10:24:00,
2013-12-02 04:39:00,52.4,51.0,29.84,WNW,285,0.0,2.0,94,0.00,,,0.00,weatherlink.com 1.10,2013-12-02 10:39:00,
2013-12-02 04:54:00,51.8,51.0,29.83,WNW,285,2.0,3.0,95,0.00,,,0.00,weatherlink.com 1.10,2013-12-02 10:54:00,
2013-12-02 05:09:00,51.4,50.0,29.83,WSW,258,3.0,5.0,94,0.00,,,0.00,weatherlink.com 1.10,2013-12-02 11:09:00,
2013-12-02 05:24:00,51.6,50.0,29.82,West,264,3.0,4.0,95,0.00,,,0.00,weatherlink.com 1.10,2013-12-02 11:24:00,
2013-12-02 05:39:00,50.9,50.0,29.83,WNW,288,0.0,4.0,95,0.00,,,0.00,weatherlink.com 1.10,2013-12-02 11:39:00,
2013-12-02 05:54:00,51.0,50.0,29.83,WNW,289,1.0,3.0,95,0.00,,,0.00,weatherlink.com 1.10,2013-12-02 11:54:00,
2013-12-02 06:09:00,51.3,50.0,29.82,West,281,2.0,6.0,95,0.00,,,0.00,weatherlink.com 1.10,2013-12-02 12:09:00,
2013-12-02 06:24:00,51.6,50.0,29.83,West,279,1.0,5.0,95,0.00,,,0.00,weatherlink.com 1.10,2013-12-02 12:24:00,
2013-12-02 06:39:00,51.2,50.0,29.82,West,260,0.0,5.0,95,0.00,,,0.00,weatherlink.com 1.10,2013-12-02 12:39:00,
2013-12-02 06:54:00,50.9,50.0,29.83,WNW,283,1.0,4.0,96,0.00,,,0.00,weatherlink.com 1.10,2013-12-02 12:54:00,
2013-12-02 07:09:00,50.3,49.0,29.84,West,277,0.0,3.0,95,0.00,,,0.00,weatherlink.com 1.10,2013-12-02 13:09:00,
2013-12-02 07:24:00,50.2,49.0,29.83,West,270,0.0,4.0,96,0.00,,,0.00,weatherlink.com 1.10,2013-12-02 13:24:00,
2013-12-02 07:39:00,50.1,49.0,29.84,West,262,1.0,3.0,96,0.00,,,0.00,weatherlink.com 1.10,2013-12-02 13:39:00,
2013-12-02 07:54:00,50.3,49.0,29.84,West,268,0.0,4.0,95,0.01,,,0.01,weatherlink.com 1.10,2013-12-02 13:54:00,
2013-12-02 08:09:00,51.2,50.0,29.84,West,268,0.0,1.0,96,0.01,,,0.01,weatherlink.com 1.10,2013-12-02 14:09:00,
2013-12-02 08:24:00,51.7,51.0,29.84,West,263,1.0,5.0,96,0.01,,,0.01,weatherlink.com 1.10,2013-12-02 14:24:00,
2013-12-02 08:39:00,52.6,52.0,29.84,WSW,254,2.0,5.0,96,0.01,,,0.01,weatherlink.com 1.10,2013-12-02 14:39:00,
2013-12-02 08:54:00,53.9,53.0,29.83,WSW,255,5.0,7.0,95,0.00,,,0.01,weatherlink.com 1.10,2013-12-02 14:54:00,
2013-12-02 09:09:00,55.6,54.0,29.84,West,267,1.0,6.0,94,0.00,,,0.01,weatherlink.com 1.10,2013-12-02 15:09:00,
2013-12-02 09:24:00,57.9,55.0,29.84,SW,236,6.0,10.0,89,0.00,,,0.01,weatherlink.com 1.10,2013-12-02 15:24:00,
2013-12-02 09:39:00,60.2,54.0,29.83,West,263,4.0,10.0,81,0.00,,,0.01,weatherlink.com 1.10,2013-12-02 15:39:00,
2013-12-02 09:54:00,62.4,54.0,29.83,West,260,1.0,9.0,73,0.00,,,0.01,weatherlink.com 1.10,2013-12-02 15:54:00,
2013-12-02 10:09:00,64.3,53.0,29.83,West,274,0.0,9.0,67,0.00,,,0.01,weatherlink.com 1.10,2013-12-02 16:09:00,
2013-12-02 10:39:00,66.8,51.0,29.81,WNW,282,8.0,10.0,57,0.00,,,0.01,weatherlink.com 1.10,2013-12-02 16:39:00,
2013-12-02 10:55:00,68.5,50.0,29.80,WSW,253,0.0,11.0,51,0.00,,,0.01,weatherlink.com 1.10,2013-12-02 16:55:00,
2013-12-02 11:10:00,69.9,48.0,29.80,WSW,258,2.0,10.0,45,0.00,,,0.01,weatherlink.com 1.10,2013-12-02 17:10:00,
2013-12-02 11:25:00,71.3,46.0,29.79,WNW,293,2.0,11.0,41,0.00,,,0.01,weatherlink.com 1.10,2013-12-02 17:25:00,
2013-12-02 11:40:00,73.0,47.0,29.77,WNW,292,0.0,10.0,39,0.00,,,0.01,weatherlink.com 1.10,2013-12-02 17:40:00,
2013-12-02 11:55:00,74.4,47.0,29.76,SW,216,7.0,14.0,38,0.00,,,0.01,weatherlink.com 1.10,2013-12-02 17:55:00,
2013-12-02 12:10:00,74.9,46.0,29.75,SW,230,7.0,13.0,36,0.00,,,0.01,weatherlink.com 1.10,2013-12-02 18:10:00,
2013-12-02 12:25:00,76.3,48.0,29.73,SW,219,2.0,12.0,37,0.00,,,0.01,weatherlink.com 1.10,2013-12-02 18:25:00,
2013-12-02 12:40:00,75.9,48.0,29.72,West,280,6.0,16.0,37,0.00,,,0.01,weatherlink.com 1.10,2013-12-02 18:40:00,
2013-12-02 12:55:00,75.8,50.0,29.72,WSW,256,6.0,16.0,40,0.00,,,0.01,weatherlink.com 1.10,2013-12-02 18:55:00,
2013-12-02 13:10:00,76.3,51.0,29.71,WSW,249,1.0,11.0,41,0.00,,,0.01,weatherlink.com 1.10,2013-12-02 19:10:00,
2013-12-02 13:25:00,76.5,49.0,29.70,WSW,250,11.0,16.0,38,0.00,,,0.01,weatherlink.com 1.10,2013-12-02 19:25:00,
2013-12-02 13:40:00,77.4,48.0,29.69,WSW,251,1.0,12.0,35,0.00,,,0.01,weatherlink.com 1.10,2013-12-02 19:40:00,
2013-12-02 13:55:00,76.8,49.0,29.68,SW,220,7.0,13.0,38,0.00,,,0.01,weatherlink.com 1.10,2013-12-02 19:55:00,
2013-12-02 14:10:00,77.2,50.0,29.68,SSW,212,6.0,12.0,38,0.00,,,0.01,weatherlink.com 1.10,2013-12-02 20:10:00,
2013-12-02 14:25:00,77.7,50.0,29.67,WSW,258,9.0,11.0,38,0.00,,,0.01,weatherlink.com 1.10,2013-12-02 20:25:00,
2013-12-02 14:40:00,78.0,48.0,29.66,South,183,8.0,11.0,35,0.00,,,0.01,weatherlink.com 1.10,2013-12-02 20:40:00,
2013-12-02 14:55:00,78.6,47.0,29.66,WSW,257,5.0,14.0,33,0.00,,,0.01,weatherlink.com 1.10,2013-12-02 20:55:00,
2013-12-02 15:10:00,78.6,45.0,29.65,WNW,290,11.0,15.0,30,0.00,,,0.01,weatherlink.com 1.10,2013-12-02 21:10:00,
2013-12-02 15:25:00,78.9,45.0,29.65,West,269,8.0,13.0,30,0.00,,,0.01,weatherlink.com 1.10,2013-12-02 21:25:00,
2013-12-02 15:40:00,79.0,42.0,29.65,SW,233,5.0,12.0,27,0.00,,,0.01,weatherlink.com 1.10,2013-12-02 21:40:00,
2013-12-02 15:55:00,78.5,44.0,29.65,West,264,12.0,17.0,29,0.00,,,0.01,weatherlink.com 1.10,2013-12-02 21:55:00,
2013-12-02 16:10:00,78.1,43.0,29.64,WNW,286,2.0,14.0,29,0.00,,,0.01,weatherlink.com 1.10,2013-12-02 22:10:00,
2013-12-02 16:25:00,77.3,44.0,29.64,West,270,1.0,9.0,30,0.00,,,0.01,weatherlink.com 1.10,2013-12-02 22:25:00,
2013-12-02 16:40:00,76.2,44.0,29.64,West,274,7.0,8.0,32,0.00,,,0.01,weatherlink.com 1.10,2013-12-02 22:40:00,
2013-12-02 16:55:00,74.3,44.0,29.65,West,262,0.0,4.0,34,0.00,,,0.01,weatherlink.com 1.10,2013-12-02 22:55:00,
2013-12-02 17:10:00,71.5,45.0,29.64,West,260,0.0,2.0,39,0.00,,,0.01,weatherlink.com 1.10,2013-12-02 23:10:00,
2013-12-02 17:25:00,69.2,44.0,29.64,West,260,0.0,1.0,41,0.00,,,0.01,weatherlink.com 1.10,2013-12-02 23:25:00,
2013-12-02 17:40:00,67.4,44.0,29.65,West,261,1.0,2.0,43,0.00,,,0.01,weatherlink.com 1.10,2013-12-02 23:40:00,
2013-12-02 17:55:00,67.9,44.0,29.66,NNW,339,1.0,5.0,43,0.00,,,0.01,weatherlink.com 1.10,2013-12-02 23:55:00,
2013-12-02 18:10:00,67.1,44.0,29.67,NNW,339,0.0,5.0,44,0.00,,,0.01,weatherlink.com 1.10,2013-12-03 00:10:00,
2013-12-02 18:25:00,64.8,44.0,29.67,NNW,339,0.0,3.0,48,0.00,,,0.01,weatherlink.com 1.10,2013-12-03 00:25:00,
2013-12-02 18:40:00,63.0,44.0,29.67,NNW,339,0.0,1.0,50,0.00,,,0.01,weatherlink.com 1.10,2013-12-03 00:40:00,
2013-12-02 19:11:00,61.5,44.0,29.68,NNW,339,0.0,2.0,53,0.00,,,0.01,weatherlink.com 1.10,2013-12-03 01:11:00,
2013-12-02 19:26:00,61.1,44.0,29.68,SSW,199,2.0,4.0,54,0.00,,,0.01,weatherlink.com 1.10,2013-12-03 01:26:00,
2013-12-02 19:41:00,59.6,44.0,29.68,SSW,201,1.0,2.0,57,0.00,,,0.01,weatherlink.com 1.10,2013-12-03 01:41:00,
2013-12-02 19:56:00,59.6,45.0,29.68,WSW,249,0.0,3.0,59,0.00,,,0.01,weatherlink.com 1.10,2013-12-03 01:56:00,
2013-12-02 20:11:00,59.2,44.0,29.68,WSW,251,1.0,3.0,58,0.00,,,0.01,weatherlink.com 1.10,2013-12-03 02:11:00,
2013-12-02 20:26:00,57.6,45.0,29.68,WSW,255,2.0,3.0,64,0.00,,,0.01,weatherlink.com 1.10,2013-12-03 02:26:00,
2013-12-02 20:41:00,55.3,45.0,29.68,WSW,258,0.0,1.0,68,0.00,,,0.01,weatherlink.com 1.10,2013-12-03 02:41:00,
2013-12-02 20:56:00,54.1,45.0,29.68,West,268,1.0,4.0,71,0.00,,,0.01,weatherlink.com 1.10,2013-12-03 02:56:00,
2013-12-02 21:11:00,53.1,44.0,29.68,WSW,256,0.0,3.0,72,0.00,,,0.01,weatherlink.com 1.10,2013-12-03 03:11:00,
2013-12-02 21:26:00,52.5,44.0,29.68,WSW,256,0.0,1.0,73,0.00,,,0.01,weatherlink.com 1.10,2013-12-03 03:26:00,
2013-12-02 21:41:00,52.3,44.0,29.68,WSW,256,0.0,3.0,74,0.00,,,0.01,weatherlink.com 1.10,2013-12-03 03:41:00,
2013-12-02 21:56:00,51.9,44.0,29.69,WSW,257,0.0,1.0,74,0.00,,,0.01,weatherlink.com 1.10,2013-12-03 03:56:00,
2013-12-02 22:11:00,51.0,44.0,29.69,WSW,257,1.0,2.0,77,0.00,,,0.01,weatherlink.com 1.10,2013-12-03 04:11:00,
2013-12-02 22:26:00,50.6,44.0,29.69,WSW,258,1.0,2.0,78,0.00,,,0.01,weatherlink.com 1.10,2013-12-03 04:26:00,
2013-12-02 22:41:00,50.6,44.0,29.69,West,259,0.0,1.0,78,0.00,,,0.01,weatherlink.com 1.10,2013-12-03 04:41:00,
2013-12-02 22:56:00,50.4,44.0,29.68,West,264,0.0,2.0,78,0.00,,,0.01,weatherlink.com 1.10,2013-12-03 04:56:00,
2013-12-02 23:11:00,50.1,44.0,29.68,West,263,0.0,4.0,78,0.00,,,0.01,weatherlink.com 1.10,2013-12-03 05:11:00,
2013-12-02 23:26:00,49.7,43.0,29.68,West,263,2.0,2.0,79,0.00,,,0.01,weatherlink.com 1.10,2013-12-03 05:26:00,
2013-12-02 23:41:00,49.2,43.0,29.68,West,264,2.0,3.0,80,0.00,,,0.01,weatherlink.com 1.10,2013-12-03 05:41:00,
2013-12-02 23:56:00,48.7,43.0,29.68,West,266,0.0,4.0,80,0.00,,,0.01,weatherlink.com 1.10,2013-12-03 05:56:00,